Time;durP1;ratioP1;P1;durP2;ratioP2;P2;SDS_P1;SDS_P2;PMS_P1;PMS_P2;Temp;Humidity;BMP_temperature;BMP_pressure;BME280_temperature;BME280_humidity;BME280_pressure;Samples;Min_cycle;Max_cycle;Signal;HPM_P1;HPM_P2
2022/03/14 00:00:51;;;;;;;15.98;9.98;;;7.50;1.00;;;;;;4998461;28;20049;-89
2022/03/14 00:03:17;;;;;;;14.52;10.50;;;7.40;1.00;;;;;;4982059;28;20045;-90
2022/03/14 00:05:43;;;;;;;17.95;10.48;;;7.40;1.00;;;;;;4997309;28;20053;-90
2022/03/14 00:08:09;;;;;;;14.50;9.70;;;7.40;1.00;;;;;;4997235;28;20057;-93
2022/03/14 00:10:35;;;;;;;14.10;9.30;;;7.40;1.00;;;;;;4997298;28;20042;-93
2022/03/14 00:13:03;;;;;;;15.90;9.75;;;7.20;1.00;;;;;;4997587;28;20046;-89
2022/03/14 00:15:33;;;;;;;14.95;9.63;;;7.10;1.00;;;;;;4997490;28;20068;-90
2022/03/14 00:18:01;;;;;;;15.75;10.20;;;7.00;1.00;;;;;;4997282;28;20085;-90
2022/03/14 00:20:27;;;;;;;14.23;10.48;;;6.90;1.00;;;;;;4997402;28;20176;-90
2022/03/14 00:22:53;;;;;;;14.75;11.15;;;6.70;1.00;;;;;;4997096;28;20053;-90
2022/03/14 00:25:19;;;;;;;16.67;11.00;;;6.70;1.00;;;;;;4981119;28;20405;-92
2022/03/14 00:27:45;;;;;;;18.48;10.43;;;6.40;1.00;;;;;;4997052;28;20038;-94
2022/03/14 00:30:12;;;;;;;14.25;11.00;;;6.20;41.60;;;;;;4981141;28;20413;-94
2022/03/14 00:32:39;;;;;;;15.93;10.57;;;6.00;89.10;;;;;;4981152;28;20044;-93
2022/03/14 00:35:09;;;;;;;15.82;10.55;;;6.00;99.90;;;;;;4996928;28;20082;-90
2022/03/14 00:37:38;;;;;;;17.40;11.73;;;5.80;99.90;;;;;;4997332;28;20497;-94
2022/03/14 00:40:07;;;;;;;16.37;11.20;;;5.60;99.90;;;;;;4980727;28;20045;-94
2022/03/14 00:42:34;;;;;;;15.75;11.40;;;5.50;99.90;;;;;;5013775;28;20505;-90
2022/03/14 00:45:00;;;;;;;15.93;10.77;;;5.30;99.90;;;;;;4996750;28;20088;-89
2022/03/14 00:47:28;;;;;;;19.73;11.67;;;5.40;1.00;;;;;;4980936;28;20049;-90
2022/03/14 00:49:54;;;;;;;16.13;11.17;;;5.30;99.90;;;;;;4980845;28;20048;-94
2022/03/14 00:52:19;;;;;;;18.40;12.03;;;5.50;1.00;;;;;;4996532;28;20062;-92
2022/03/14 00:54:45;;;;;;;15.33;10.93;;;5.40;1.00;;;;;;4981210;28;20050;-90
2022/03/14 00:57:12;;;;;;;20.20;12.73;;;5.50;1.00;;;;;;4997183;28;20053;-90
2022/03/14 00:59:39;;;;;;;18.63;11.68;;;5.80;1.00;;;;;;4980597;28;20049;-93
2022/03/14 01:02:06;;;;;;;19.37;12.43;;;5.80;1.00;;;;;;4980593;28;20400;-90
2022/03/14 01:04:32;;;;;;;20.02;11.52;;;6.10;31.00;;;;;;4996775;28;20038;-91
2022/03/14 01:06:58;;;;;;;15.98;11.20;;;6.10;77.00;;;;;;4980216;28;20042;-90
2022/03/14 01:09:23;;;;;;;14.63;10.45;;;6.30;19.90;;;;;;4996632;28;20046;-89
2022/03/14 01:11:49;;;;;;;16.05;11.68;;;6.40;13.40;;;;;;4980301;28;20042;-90
2022/03/14 01:14:16;;;;;;;18.17;11.32;;;6.60;99.90;;;;;;4980248;28;20077;-94
2022/03/14 01:16:42;;;;;;;17.90;11.85;;;6.60;99.90;;;;;;4980413;28;20069;-90
2022/03/14 01:19:11;;;;;;;18.45;12.57;;;6.70;99.90;;;;;;4980163;28;20042;-90
2022/03/14 01:21:40;;;;;;;16.08;11.85;;;6.90;99.90;;;;;;4980671;28;20048;-94
2022/03/14 01:24:06;;;;;;;17.60;11.77;;;7.00;99.90;;;;;;5013227;28;20077;-93
2022/03/14 01:26:35;;;;;;;17.33;12.27;;;7.10;99.90;;;;;;4980907;28;20043;-94
2022/03/14 01:29:02;;;;;;;16.55;12.13;;;7.10;1.00;;;;;;5000801;28;20046;-95
2022/03/14 01:31:28;;;;;;;18.33;12.35;;;7.30;99.90;;;;;;5000212;28;20046;-91
2022/03/14 01:33:54;;;;;;;19.27;11.80;;;7.50;99.90;;;;;;4984114;28;20041;-92
2022/03/14 01:36:20;;;;;;;18.13;12.55;;;7.40;99.90;;;;;;4983791;28;20042;-90
2022/03/14 01:38:46;;;;;;;23.05;12.30;;;7.40;99.90;;;;;;4984740;28;20400;-91
2022/03/14 01:41:15;;;;;;;18.98;12.38;;;7.40;1.00;;;;;;5000095;28;20049;-90
2022/03/14 01:43:41;;;;;;;21.30;13.60;;;7.40;1.00;;;;;;4984871;28;20038;-90
2022/03/14 01:46:07;;;;;;;18.65;13.02;;;7.40;99.90;;;;;;4983979;28;20050;-90
2022/03/14 01:48:32;;;;;;;18.45;12.35;;;7.40;1.00;;;;;;4984196;28;20038;-91
2022/03/14 01:50:58;;;;;;;17.00;11.93;;;7.40;1.00;;;;;;5000445;28;20064;-94
2022/03/14 01:53:25;;;;;;;18.88;13.20;;;7.40;1.00;;;;;;4999982;28;20053;-90
2022/03/14 01:55:52;;;;;;;17.25;12.75;;;7.30;1.00;;;;;;5000166;28;20046;-91
2022/03/14 01:58:17;;;;;;;22.08;12.25;;;7.40;1.00;;;;;;4983746;28;20046;-91
2022/03/14 02:00:43;;;;;;;15.27;11.88;;;7.40;1.00;;;;;;4983761;28;20119;-93
2022/03/14 02:03:10;;;;;;;17.10;12.70;;;7.50;1.00;;;;;;5016367;28;20092;-90
2022/03/14 02:05:37;;;;;;;16.35;11.85;;;7.50;1.00;;;;;;4983320;28;20050;-90
2022/03/14 02:08:06;;;;;;;16.65;11.98;;;7.50;1.00;;;;;;4984025;28;20037;-94
2022/03/14 02:10:34;;;;;;;17.98;11.98;;;7.60;1.00;;;;;;5016033;28;20041;-91
2022/03/14 02:13:07;;;;;;;15.95;11.95;;;7.50;1.00;;;;;;5000063;28;20489;-90
2022/03/14 02:15:34;;;;;;;16.45;12.15;;;7.60;1.00;;;;;;4999694;28;20050;-95
2022/03/14 02:18:00;;;;;;;19.10;11.50;;;7.60;1.00;;;;;;4999330;28;20050;-94
2022/03/14 02:20:26;;;;;;;17.58;11.75;;;7.60;1.00;;;;;;4984596;28;20041;-94
2022/03/14 02:22:52;;;;;;;16.52;13.05;;;7.60;1.00;;;;;;4999621;28;20038;-94
2022/03/14 02:25:18;;;;;;;18.70;11.93;;;7.60;1.00;;;;;;4999424;28;20132;-91
2022/03/14 02:27:44;;;;;;;22.33;12.80;;;7.60;1.00;;;;;;4983167;28;20064;-94
2022/03/14 02:30:10;;;;;;;20.00;12.93;;;7.60;1.00;;;;;;4983274;28;20049;-92
2022/03/14 02:32:41;;;;;;;17.67;11.57;;;7.60;1.00;;;;;;4983315;28;20049;-93
2022/03/14 02:35:07;;;;;;;19.55;12.40;;;7.60;1.00;;;;;;5000557;28;20053;-94
2022/03/14 02:37:33;;;;;;;17.42;11.85;;;7.70;1.00;;;;;;4982860;28;20057;-93
2022/03/14 02:39:59;;;;;;;15.43;11.48;;;7.70;1.00;;;;;;4998215;28;20042;-90
2022/03/14 02:42:25;;;;;;;15.82;11.57;;;7.60;1.00;;;;;;4983115;28;20103;-91
2022/03/14 02:44:51;;;;;;;14.95;11.23;;;7.60;1.00;;;;;;4983008;28;20041;-92
2022/03/14 02:47:17;;;;;;;14.88;10.75;;;7.60;15.30;;;;;;4999026;28;20477;-94
2022/03/14 02:49:43;;;;;;;17.10;12.02;;;7.70;18.00;;;;;;4983532;28;20046;-90
2022/03/14 02:52:08;;;;;;;16.35;11.07;;;7.70;27.30;;;;;;4982711;28;20561;-90
2022/03/14 02:54:35;;;;;;;15.73;12.10;;;7.80;33.50;;;;;;4982942;28;20081;-93
2022/03/14 02:57:01;;;;;;;16.55;11.38;;;7.70;48.50;;;;;;4982572;28;20101;-94
2022/03/14 02:59:27;;;;;;;16.92;11.82;;;7.70;43.40;;;;;;4982664;28;20100;-91
2022/03/14 03:01:53;;;;;;;14.95;11.00;;;7.80;41.00;;;;;;4982733;28;20219;-91
2022/03/14 03:04:18;;;;;;;14.38;11.00;;;7.70;57.60;;;;;;4999103;28;20129;-91
2022/03/14 03:06:45;;;;;;;14.68;10.90;;;7.80;91.00;;;;;;4982343;28;20050;-90
2022/03/14 03:09:11;;;;;;;15.15;11.43;;;7.80;88.60;;;;;;4982895;28;20045;-93
2022/03/14 03:11:37;;;;;;;17.23;11.75;;;7.80;92.50;;;;;;5015011;28;20503;-94
2022/03/14 03:14:04;;;;;;;12.57;10.25;;;8.00;97.60;;;;;;4982178;28;20042;-92
2022/03/14 03:16:31;;;;;;;14.35;10.55;;;7.70;96.20;;;;;;5015199;28;20034;-93
2022/03/14 03:18:57;;;;;;;14.93;10.77;;;7.80;87.10;;;;;;4998815;28;20049;-95
2022/03/14 03:21:23;;;;;;;14.43;10.23;;;7.90;87.60;;;;;;4982372;28;20053;-90
2022/03/14 03:23:49;;;;;;;13.98;10.80;;;7.90;99.90;;;;;;4982422;28;20197;-91
2022/03/14 03:26:15;;;;;;;14.20;10.40;;;8.00;99.90;;;;;;4981876;28;20132;-90
2022/03/14 03:28:41;;;;;;;13.02;10.23;;;7.90;99.90;;;;;;4982166;28;20042;-94
2022/03/14 03:31:09;;;;;;;15.43;10.25;;;7.80;99.90;;;;;;4982689;28;20042;-94
2022/03/14 03:33:36;;;;;;;12.95;9.80;;;7.90;99.90;;;;;;4998489;28;20041;-93
2022/03/14 03:36:03;;;;;;;12.13;9.80;;;7.90;99.90;;;;;;4981664;28;20053;-94
2022/03/14 03:38:29;;;;;;;12.98;9.63;;;7.90;99.90;;;;;;4998239;28;20107;-94
2022/03/14 03:40:55;;;;;;;13.25;9.35;;;7.90;99.90;;;;;;5014152;28;20048;-93
2022/03/14 03:43:21;;;;;;;12.85;9.93;;;8.00;99.90;;;;;;4998216;28;20129;-94
2022/03/14 03:45:47;;;;;;;13.07;10.02;;;7.90;99.90;;;;;;4998507;28;20042;-94
2022/03/14 03:48:13;;;;;;;13.65;9.68;;;7.90;99.90;;;;;;4998047;28;20088;-91
2022/03/14 03:50:39;;;;;;;12.82;9.95;;;7.80;99.90;;;;;;4997210;28;20046;-90
2022/03/14 03:53:05;;;;;;;15.80;10.60;;;7.90;99.90;;;;;;4997871;28;20057;-90
2022/03/14 03:55:30;;;;;;;15.90;10.27;;;7.80;99.90;;;;;;4981518;28;20045;-94
2022/03/14 03:57:56;;;;;;;12.57;9.90;;;7.80;99.90;;;;;;4981897;28;20104;-91
2022/03/14 04:00:22;;;;;;;14.60;10.10;;;7.90;99.90;;;;;;4981504;28;20049;-91
2022/03/14 04:02:50;;;;;;;13.30;9.02;;;7.80;99.90;;;;;;4982071;28;20104;-94
2022/03/14 04:05:16;;;;;;;12.75;9.48;;;7.80;99.90;;;;;;4997771;28;20046;-90
2022/03/14 04:07:43;;;;;;;12.25;9.57;;;7.90;99.90;;;;;;4981178;28;20050;-94
2022/03/14 04:10:12;;;;;;;13.68;9.65;;;7.90;99.90;;;;;;5013726;28;20172;-90
2022/03/14 04:12:39;;;;;;;11.30;8.68;;;7.90;99.90;;;;;;4982664;28;20077;-94
2022/03/14 04:15:10;;;;;;;12.82;9.77;;;7.90;99.90;;;;;;4981866;28;20580;-95
2022/03/14 04:17:38;;;;;;;13.38;9.90;;;7.90;99.90;;;;;;5013666;28;20046;-95
2022/03/14 04:20:09;;;;;;;12.85;8.98;;;7.80;99.90;;;;;;4997959;28;20094;-94
2022/03/14 04:22:39;;;;;;;13.25;9.57;;;7.80;99.90;;;;;;5013588;28;20100;-93
2022/03/14 04:25:06;;;;;;;11.23;9.23;;;7.80;99.90;;;;;;4981047;28;20042;-94
2022/03/14 04:27:33;;;;;;;14.02;8.73;;;7.80;99.90;;;;;;4981010;28;20069;-91
2022/03/14 04:29:59;;;;;;;11.50;8.20;;;7.70;99.90;;;;;;5014021;28;20053;-94
2022/03/14 04:32:26;;;;;;;10.65;7.38;;;7.70;99.90;;;;;;4981814;28;20046;-94
2022/03/14 04:34:52;;;;;;;10.32;7.90;;;7.80;99.90;;;;;;4997198;28;20078;-93
2022/03/14 04:37:19;;;;;;;9.40;7.35;;;7.80;99.90;;;;;;5013374;28;20057;-90
2022/03/14 04:39:45;;;;;;;10.50;7.75;;;7.80;99.90;;;;;;4997212;28;20448;-90
2022/03/14 04:42:11;;;;;;;10.75;8.20;;;7.70;99.90;;;;;;4980968;28;20139;-94
2022/03/14 04:44:38;;;;;;;10.00;7.40;;;7.90;99.90;;;;;;4997095;28;20049;-90
2022/03/14 04:47:04;;;;;;;11.55;8.13;;;7.70;99.90;;;;;;4997058;28;20076;-90
2022/03/14 04:49:30;;;;;;;12.80;7.38;;;7.70;99.90;;;;;;4980654;28;20046;-91
2022/03/14 04:51:57;;;;;;;10.07;7.25;;;7.70;99.90;;;;;;4980311;28;20045;-91
2022/03/14 04:58:04;;;;;;;9.07;6.53;;;7.60;99.90;;;;;;5003799;28;20056;-94
2022/03/14 05:00:30;;;;;;;11.85;6.68;;;7.50;99.90;;;;;;4996319;28;20100;-94
2022/03/14 05:03:00;;;;;;;9.98;7.15;;;7.50;99.90;;;;;;4976157;28;20038;-90
2022/03/14 05:05:26;;;;;;;9.18;5.88;;;7.50;99.90;;;;;;4977706;28;20038;-90
2022/03/14 05:07:52;;;;;;;8.48;6.00;;;7.50;99.90;;;;;;4974436;28;20036;-91
2022/03/14 05:10:18;;;;;;;10.55;7.43;;;7.60;99.90;;;;;;4980236;28;20052;-89
2022/03/14 05:12:44;;;;;;;7.47;6.30;;;7.50;99.90;;;;;;4976874;28;20066;-94
2022/03/14 05:15:09;;;;;;;8.05;6.30;;;7.50;99.90;;;;;;4976883;28;20129;-90
2022/03/14 05:17:36;;;;;;;9.88;6.60;;;7.50;99.90;;;;;;4996014;28;20053;-91
2022/03/14 05:20:03;;;;;;;9.73;7.18;;;7.70;99.90;;;;;;4980921;28;20057;-93
2022/03/14 05:22:28;;;;;;;8.32;6.90;;;7.60;99.90;;;;;;4979863;28;20038;-94
2022/03/14 05:24:54;;;;;;;10.52;6.85;;;7.60;99.90;;;;;;4969985;28;20042;-91
2022/03/14 05:27:20;;;;;;;10.02;6.78;;;7.70;99.90;;;;;;4995464;28;20038;-90
2022/03/14 05:29:46;;;;;;;9.70;6.72;;;7.70;99.90;;;;;;4944828;28;20062;-88
2022/03/14 05:32:12;;;;;;;8.82;6.50;;;7.70;99.90;;;;;;4979924;28;20049;-91
2022/03/14 05:34:38;;;;;;;9.35;6.50;;;7.70;99.90;;;;;;4976800;28;20493;-90
2022/03/14 05:37:04;;;;;;;7.82;5.95;;;7.80;99.90;;;;;;4963731;28;20046;-90
2022/03/14 05:39:30;;;;;;;8.63;5.50;;;7.80;99.90;;;;;;4980333;28;20038;-93
2022/03/14 05:41:56;;;;;;;7.10;5.95;;;7.80;99.90;;;;;;4989301;28;20050;-92
2022/03/14 05:44:29;;;;;;;6.30;5.30;;;7.90;99.90;;;;;;4986977;28;20056;-90
2022/03/14 05:46:55;;;;;;;7.53;5.45;;;7.90;99.90;;;;;;4993217;28;20493;-94
2022/03/14 05:49:21;;;;;;;6.75;5.18;;;8.20;99.90;;;;;;4979481;28;20045;-90
2022/03/14 05:51:49;;;;;;;7.45;5.72;;;7.80;99.90;;;;;;4979233;28;20098;-90
2022/03/14 05:54:14;;;;;;;7.57;5.85;;;7.80;99.90;;;;;;4995605;28;20053;-94
2022/03/14 05:56:40;;;;;;;7.97;6.05;;;7.80;1.00;;;;;;4995471;28;20056;-94
2022/03/14 05:59:07;;;;;;;8.20;6.20;;;7.80;1.00;;;;;;4952277;28;20506;-90
2022/03/14 06:01:33;;;;;;;7.38;6.10;;;7.70;1.00;;;;;;4975915;28;20053;-90
2022/03/14 06:03:58;;;;;;;7.78;5.95;;;7.70;1.00;;;;;;4992974;28;20046;-94
2022/03/14 06:06:24;;;;;;;9.00;6.40;;;7.60;1.00;;;;;;4969320;28;20031;-90
2022/03/14 06:08:50;;;;;;;7.72;6.03;;;7.50;1.00;;;;;;4960026;28;20046;-91
2022/03/14 06:11:16;;;;;;;9.23;6.22;;;7.50;1.00;;;;;;4976455;28;20048;-90
2022/03/14 06:13:43;;;;;;;8.13;6.35;;;7.60;1.00;;;;;;4970066;28;20042;-94
2022/03/14 06:16:08;;;;;;;7.55;6.22;;;7.60;1.00;;;;;;4964931;28;20053;-91
2022/03/14 06:18:34;;;;;;;9.57;6.68;;;7.50;1.00;;;;;;4979570;28;20042;-94
2022/03/14 06:21:00;;;;;;;8.68;7.15;;;7.60;1.00;;;;;;4983035;28;20411;-90
2022/03/14 06:23:26;;;;;;;9.88;7.13;;;7.50;1.00;;;;;;4979475;28;20050;-95
2022/03/14 06:25:54;;;;;;;11.63;7.45;;;7.60;1.00;;;;;;4963927;28;20034;-94
2022/03/14 06:28:21;;;;;;;10.75;7.20;;;7.50;1.00;;;;;;4999173;28;20041;-90
2022/03/14 06:30:47;;;;;;;9.40;7.50;;;7.50;1.00;;;;;;5014638;28;20054;-90
2022/03/14 06:33:12;;;;;;;10.93;6.75;;;7.50;1.00;;;;;;4982193;28;20491;-95
2022/03/14 06:35:40;;;;;;;9.00;6.85;;;7.80;3.20;;;;;;4995944;28;20026;-90
2022/03/14 06:38:06;;;;;;;8.98;6.68;;;7.50;13.90;;;;;;4987769;28;20053;-94
2022/03/14 06:40:32;;;;;;;8.15;6.07;;;7.50;9.20;;;;;;4962912;28;20502;-90
2022/03/14 06:42:59;;;;;;;9.85;6.53;;;7.70;16.70;;;;;;4980460;28;20129;-91
2022/03/14 06:45:24;;;;;;;8.65;6.35;;;7.80;28.70;;;;;;4966289;28;20056;-92
2022/03/14 06:47:54;;;;;;;9.50;7.32;;;7.60;37.00;;;;;;4979334;28;20050;-90
2022/03/14 06:50:21;;;;;;;8.48;6.35;;;7.80;31.70;;;;;;4982041;28;20073;-94
2022/03/14 06:52:47;;;;;;;8.07;6.70;;;7.70;30.90;;;;;;4998354;28;20068;-90
2022/03/14 06:55:13;;;;;;;10.23;6.30;;;7.60;23.30;;;;;;4977941;28;20049;-95
2022/03/14 06:57:40;;;;;;;10.13;7.15;;;7.60;27.90;;;;;;4978790;28;20039;-91
2022/03/14 07:00:07;;;;;;;9.07;6.95;;;7.60;18.30;;;;;;4969184;28;20074;-93
2022/03/14 07:02:37;;;;;;;8.93;6.82;;;7.70;19.80;;;;;;4981579;28;20480;-95
2022/03/14 07:05:03;;;;;;;9.57;6.55;;;7.70;23.70;;;;;;4998407;28;20089;-95
2022/03/14 07:07:29;;;;;;;8.50;6.50;;;7.80;55.30;;;;;;4981937;28;20046;-94
2022/03/14 07:09:55;;;;;;;9.82;6.10;;;7.80;72.50;;;;;;4979557;28;20050;-93
2022/03/14 07:12:21;;;;;;;8.48;6.47;;;7.90;96.20;;;;;;4955229;28;20038;-90
2022/03/14 07:14:46;;;;;;;10.25;7.80;;;8.00;88.40;;;;;;4977480;28;20085;-94
2022/03/14 07:17:12;;;;;;;8.73;6.82;;;7.90;84.10;;;;;;4994120;28;20548;-94
2022/03/14 07:19:42;;;;;;;9.43;7.35;;;8.10;91.90;;;;;;4989145;28;20046;-93
2022/03/14 07:22:09;;;;;;;12.30;8.48;;;8.00;91.00;;;;;;4997291;28;20042;-91
2022/03/14 07:24:34;;;;;;;11.90;7.53;;;8.00;99.90;;;;;;4980276;28;20046;-94
2022/03/14 07:27:00;;;;;;;9.88;7.82;;;8.00;99.90;;;;;;4978255;28;20045;-90
2022/03/14 07:29:26;;;;;;;10.60;7.63;;;8.00;99.90;;;;;;4962019;28;20046;-90
2022/03/14 07:31:52;;;;;;;10.63;7.88;;;8.30;99.90;;;;;;4979156;28;20045;-94
2022/03/14 07:34:18;;;;;;;11.43;7.90;;;8.30;99.90;;;;;;4997350;28;20092;-89
2022/03/14 07:36:44;;;;;;;14.10;8.57;;;8.00;99.90;;;;;;4979694;28;20583;-90
2022/03/14 07:39:10;;;;;;;13.23;8.45;;;8.30;99.90;;;;;;4981010;28;20049;-89
2022/03/14 07:41:36;;;;;;;11.00;8.18;;;8.20;99.90;;;;;;4964864;28;20117;-90
2022/03/14 07:44:03;;;;;;;12.90;9.02;;;8.20;99.90;;;;;;4981655;28;20041;-94
2022/03/14 07:46:29;;;;;;;14.40;8.07;;;8.20;99.90;;;;;;4957014;28;20042;-89
2022/03/14 07:48:55;;;;;;;12.25;8.63;;;8.30;99.90;;;;;;4997652;28;20551;-94
2022/03/14 07:51:21;;;;;;;11.00;8.27;;;8.30;99.90;;;;;;4977734;28;20081;-95
2022/03/14 07:53:47;;;;;;;11.98;8.60;;;8.40;99.90;;;;;;4978731;28;20049;-89
2022/03/14 07:56:13;;;;;;;10.18;7.00;;;8.40;99.90;;;;;;4978047;28;20069;-94
2022/03/14 07:58:43;;;;;;;11.50;8.52;;;8.50;99.90;;;;;;4981519;28;20064;-90
2022/03/14 08:01:09;;;;;;;11.30;8.60;;;8.60;99.90;;;;;;4997101;28;20045;-90
2022/03/14 08:03:35;;;;;;;10.60;7.75;;;8.70;99.90;;;;;;4980969;28;20042;-89
2022/03/14 08:06:02;;;;;;;10.13;7.70;;;8.80;99.90;;;;;;4980351;28;20141;-89
2022/03/14 08:08:28;;;;;;;10.40;7.22;;;8.80;99.90;;;;;;4980942;28;20512;-94
2022/03/14 08:10:54;;;;;;;11.32;8.40;;;8.80;99.90;;;;;;4965762;28;20104;-89
2022/03/14 08:13:20;;;;;;;11.68;8.60;;;8.70;99.90;;;;;;4981089;28;20489;-89
2022/03/14 08:15:47;;;;;;;11.45;8.32;;;8.80;99.90;;;;;;4996456;28;20135;-90
2022/03/14 08:18:13;;;;;;;9.38;7.70;;;8.80;99.90;;;;;;4997206;28;20042;-89
2022/03/14 08:20:39;;;;;;;9.98;7.60;;;8.90;99.90;;;;;;4964165;28;20128;-94
2022/03/14 08:23:06;;;;;;;12.30;8.70;;;9.00;99.90;;;;;;4987165;28;20073;-93
2022/03/14 08:25:36;;;;;;;10.57;8.10;;;8.90;99.90;;;;;;4966768;28;20046;-94
2022/03/14 08:28:02;;;;;;;13.05;9.77;;;9.10;99.90;;;;;;4977426;28;20052;-94
2022/03/14 08:30:29;;;;;;;11.25;8.18;;;9.00;99.90;;;;;;4995621;28;20040;-93
2022/03/14 08:32:56;;;;;;;9.00;7.45;;;9.00;99.90;;;;;;4996458;28;20080;-89
2022/03/14 08:35:22;;;;;;;9.55;7.85;;;8.90;99.90;;;;;;4973777;28;20042;-93
2022/03/14 08:37:50;;;;;;;13.43;9.05;;;8.90;99.90;;;;;;4980410;28;20108;-93
2022/03/14 08:40:20;;;;;;;11.82;8.82;;;9.10;99.90;;;;;;4995505;28;20044;-89
2022/03/14 08:42:48;;;;;;;11.43;9.45;;;8.80;99.90;;;;;;4996367;28;20133;-90
2022/03/14 08:45:14;;;;;;;17.00;10.15;;;8.80;99.90;;;;;;4996474;28;20476;-89
2022/03/14 08:47:40;;;;;;;12.43;9.40;;;8.80;99.90;;;;;;4972741;28;20467;-93
2022/03/14 08:50:07;;;;;;;12.25;9.23;;;8.90;99.90;;;;;;4978819;28;20073;-89
2022/03/14 08:52:34;;;;;;;15.13;10.48;;;8.80;99.90;;;;;;4995656;28;20061;-90
2022/03/14 08:55:00;;;;;;;14.13;9.90;;;8.80;99.90;;;;;;5011881;28;20130;-89
2022/03/14 08:57:26;;;;;;;15.10;11.05;;;8.90;99.90;;;;;;4975977;28;20049;-94
2022/03/14 08:59:52;;;;;;;13.38;10.68;;;8.90;99.90;;;;;;4990836;28;20199;-89
2022/03/14 09:02:18;;;;;;;13.57;10.60;;;8.90;99.90;;;;;;4995963;28;20125;-90
2022/03/14 09:04:44;;;;;;;14.35;11.18;;;9.00;99.90;;;;;;5014599;28;20083;-94
2022/03/14 09:07:10;;;;;;;14.25;10.18;;;9.10;99.90;;;;;;5011037;28;20050;-96
2022/03/14 09:09:36;;;;;;;15.07;11.25;;;9.20;99.90;;;;;;4995182;28;20526;-90
2022/03/14 09:12:03;;;;;;;15.30;10.32;;;9.30;99.90;;;;;;4982046;28;20440;-94
2022/03/14 09:14:31;;;;;;;14.50;10.93;;;9.40;99.90;;;;;;4980612;28;20057;-90
2022/03/14 09:16:58;;;;;;;15.25;10.95;;;9.50;99.90;;;;;;5015618;28;20051;-94
2022/03/14 09:19:25;;;;;;;14.32;10.80;;;9.50;99.90;;;;;;4960945;28;20054;-95
2022/03/14 09:21:58;;;;;;;14.98;11.57;;;9.40;99.90;;;;;;4976888;28;20038;-94
2022/03/14 09:24:24;;;;;;;14.60;11.50;;;9.40;99.90;;;;;;4961484;28;20038;-90
2022/03/14 09:26:50;;;;;;;16.13;12.60;;;9.30;99.90;;;;;;4976324;28;20053;-91
2022/03/14 09:29:16;;;;;;;23.52;16.23;;;9.30;99.90;;;;;;4963596;28;20503;-90
2022/03/14 09:31:42;;;;;;;29.35;19.52;;;9.40;99.90;;;;;;4969420;28;20047;-89
2022/03/14 09:34:08;;;;;;;26.30;19.67;;;9.50;99.90;;;;;;4990998;28;20115;-91
2022/03/14 09:36:34;;;;;;;28.23;21.38;;;9.50;99.90;;;;;;4994281;28;20497;-90
2022/03/14 09:39:00;;;;;;;25.88;19.95;;;9.50;99.90;;;;;;4965112;28;20058;-91
2022/03/14 09:41:29;;;;;;;26.83;21.38;;;9.40;99.90;;;;;;4957074;28;20039;-90
2022/03/14 09:43:59;;;;;;;31.30;23.33;;;9.40;99.90;;;;;;4979719;28;20485;-91
2022/03/14 09:46:27;;;;;;;34.33;24.00;;;9.30;99.90;;;;;;4996120;28;20081;-92
2022/03/14 09:48:57;;;;;;;42.13;27.60;;;9.10;99.90;;;;;;5014718;28;20088;-91
2022/03/14 09:51:24;;;;;;;39.33;26.38;;;9.10;99.90;;;;;;4999426;28;20057;-91
2022/03/14 09:53:51;;;;;;;44.47;28.70;;;9.10;99.90;;;;;;4967173;28;20497;-90
2022/03/14 09:56:16;;;;;;;53.15;30.50;;;8.90;99.90;;;;;;4982843;28;20049;-90
2022/03/14 09:58:44;;;;;;;46.88;25.42;;;9.00;99.90;;;;;;4999565;28;20042;-91
2022/03/14 10:01:11;;;;;;;50.25;26.73;;;8.90;99.90;;;;;;4982683;28;20046;-91
2022/03/14 10:03:37;;;;;;;42.10;21.27;;;8.80;99.90;;;;;;4974275;28;20358;-93
2022/03/14 10:06:03;;;;;;;17.67;10.70;;;8.60;99.90;;;;;;4996477;28;20041;-92
2022/03/14 10:08:28;;;;;;;13.18;8.05;;;8.60;99.90;;;;;;5002587;28;20147;-90
2022/03/14 10:10:54;;;;;;;11.63;6.88;;;8.60;99.90;;;;;;5002877;28;20089;-90
2022/03/14 10:13:20;;;;;;;11.70;6.13;;;8.50;99.90;;;;;;4989504;28;20049;-91
2022/03/14 10:15:47;;;;;;;45.20;20.20;;;8.50;99.90;;;;;;4979788;28;20065;-93
2022/03/14 10:18:18;;;;;;;61.58;21.70;;;8.50;99.90;;;;;;4984365;28;20124;-93
2022/03/14 10:21:05;;;;;;;55.80;21.65;;;8.60;99.90;;;;;;4980164;28;20089;-90
2022/03/14 10:23:43;;;;;;;49.65;17.02;;;8.60;99.90;;;;;;4980756;28;20089;-89
2022/03/14 10:26:16;;;;;;;53.75;17.73;;;8.60;99.90;;;;;;4997701;28;20420;-90
2022/03/14 10:28:48;;;;;;;48.67;15.68;;;8.70;99.90;;;;;;4981060;28;20514;-91
2022/03/14 10:31:27;;;;;;;58.35;16.50;;;8.70;99.90;;;;;;5015022;28;20069;-91
2022/03/14 10:34:04;;;;;;;62.90;19.42;;;8.80;99.90;;;;;;4998598;28;20038;-91
2022/03/14 10:36:45;;;;;;;59.97;18.25;;;8.90;99.90;;;;;;5014944;28;20493;-92
2022/03/14 10:39:41;;;;;;;60.15;18.25;;;9.00;99.90;;;;;;4999567;28;20049;-90
2022/03/14 10:42:16;;;;;;;54.97;16.55;;;9.00;99.90;;;;;;4995496;28;20064;-96
2022/03/14 10:44:43;;;;;;;68.47;16.80;;;9.10;99.90;;;;;;4981876;28;20046;-91
2022/03/14 10:47:11;;;;;;;42.75;15.98;;;9.10;99.90;;;;;;4983180;28;20053;-91
2022/03/14 10:49:39;;;;;;;44.08;15.82;;;9.20;99.90;;;;;;4999628;28;20464;-93
2022/03/14 10:52:07;;;;;;;55.90;16.42;;;9.20;99.90;;;;;;4997934;28;20396;-91
2022/03/14 10:54:41;;;;;;;49.38;14.73;;;9.20;99.90;;;;;;4998842;28;20100;-92
2022/03/14 10:57:30;;;;;;;48.80;15.70;;;9.30;99.90;;;;;;4998152;28;20096;-93
2022/03/14 10:59:57;;;;;;;35.80;12.27;;;9.30;99.90;;;;;;4997228;28;20042;-92
2022/03/14 11:02:25;;;;;;;31.35;12.57;;;9.20;99.90;;;;;;4999290;28;20042;-93
2022/03/14 11:04:52;;;;;;;37.35;12.85;;;9.20;99.90;;;;;;4991585;28;20050;-91
2022/03/14 11:07:20;;;;;;;34.35;12.88;;;9.20;99.90;;;;;;4981943;28;20037;-92
2022/03/14 11:09:56;;;;;;;39.55;13.85;;;9.30;99.90;;;;;;4999062;28;20041;-91
2022/03/14 11:12:24;;;;;;;36.78;13.98;;;9.30;99.90;;;;;;4998119;28;20396;-94
2022/03/14 11:15:02;;;;;;;34.03;13.50;;;9.40;99.90;;;;;;4998177;28;20046;-94
2022/03/14 11:17:31;;;;;;;42.47;14.55;;;9.50;99.90;;;;;;4997325;28;20269;-95
2022/03/14 11:19:58;;;;;;;33.97;12.18;;;9.50;99.90;;;;;;5014236;28;20042;-93
2022/03/14 11:22:26;;;;;;;29.73;10.95;;;9.60;99.90;;;;;;4997749;28;20053;-92
2022/03/14 11:24:54;;;;;;;19.73;9.18;;;9.60;99.90;;;;;;4998855;28;20038;-93
2022/03/14 11:27:21;;;;;;;24.08;8.52;;;9.70;99.90;;;;;;4982314;28;20041;-94
2022/03/14 11:29:48;;;;;;;19.15;7.65;;;9.60;99.90;;;;;;5014802;28;20046;-92
2022/03/14 11:32:17;;;;;;;22.20;8.85;;;9.60;99.90;;;;;;4998622;28;20061;-95
2022/03/14 11:34:44;;;;;;;22.42;8.35;;;9.60;99.90;;;;;;4998182;28;20148;-92
2022/03/14 11:37:11;;;;;;;18.60;8.10;;;9.70;99.90;;;;;;4998863;28;20041;-91
2022/03/14 11:39:37;;;;;;;17.92;7.95;;;9.70;99.90;;;;;;4998257;28;20042;-91
2022/03/14 11:42:04;;;;;;;18.13;8.05;;;9.70;99.90;;;;;;4997718;28;20046;-91
2022/03/14 11:44:30;;;;;;;19.13;8.07;;;9.70;99.90;;;;;;4998029;28;20119;-94
2022/03/14 11:46:57;;;;;;;18.55;8.75;;;9.80;99.90;;;;;;4981714;28;20046;-94
2022/03/14 11:49:28;;;;;;;20.98;9.45;;;9.80;98.70;;;;;;4997870;28;20042;-94
2022/03/14 11:52:22;;;;;;;16.88;8.32;;;9.80;82.20;;;;;;4997513;28;20097;-91
2022/03/14 11:55:01;;;;;;;23.55;9.80;;;9.80;74.40;;;;;;4997874;28;20050;-94
2022/03/14 11:57:42;;;;;;;21.90;8.38;;;9.80;67.20;;;;;;4997663;28;20052;-93
2022/03/14 12:00:27;;;;;;;22.67;9.27;;;9.80;50.00;;;;;;4997505;28;20052;-92
2022/03/14 12:02:57;;;;;;;21.02;7.95;;;9.80;52.30;;;;;;4997519;28;20049;-91
2022/03/14 12:05:32;;;;;;;18.27;8.68;;;9.80;38.00;;;;;;5013877;28;20045;-91
2022/03/14 12:08:13;;;;;;;20.58;8.35;;;9.90;22.80;;;;;;4997824;28;20096;-92
2022/03/14 12:10:39;;;;;;;20.83;10.50;;;9.90;23.10;;;;;;4997248;28;20511;-91
2022/03/14 12:13:05;;;;;;;13.90;8.85;;;9.90;10.20;;;;;;4981490;28;20081;-92
2022/03/14 12:15:48;;;;;;;21.45;9.68;;;10.00;2.50;;;;;;4981688;28;20046;-93
2022/03/14 12:18:23;;;;;;;15.40;9.82;;;10.00;4.40;;;;;;4981363;28;20045;-93
2022/03/14 12:20:53;;;;;;;22.73;11.95;;;10.00;5.60;;;;;;4997561;28;20524;-91
2022/03/14 12:23:23;;;;;;;22.00;11.95;;;10.10;7.30;;;;;;4997921;28;20127;-92
2022/03/14 12:25:49;;;;;;;31.75;13.18;;;10.30;1.20;;;;;;4981016;28;20046;-94
2022/03/14 12:28:36;;;;;;;25.80;13.18;;;10.50;1.00;;;;;;4997288;28;20045;-93
2022/03/14 12:31:16;;;;;;;30.33;13.15;;;10.70;1.00;;;;;;4997222;28;20046;-94
2022/03/14 12:33:44;;;;;;;28.35;11.77;;;10.80;1.00;;;;;;4981487;28;20512;-93
2022/03/14 12:36:20;;;;;;;25.10;13.18;;;11.00;1.00;;;;;;4997574;28;20041;-93
2022/03/14 12:39:12;;;;;;;26.27;12.32;;;11.20;1.00;;;;;;4997128;28;20054;-93
2022/03/14 12:41:43;;;;;;;26.38;11.77;;;11.30;1.00;;;;;;5001673;28;20076;-93
2022/03/14 12:44:20;;;;;;;27.20;11.50;;;11.20;1.00;;;;;;4980984;28;20497;-92
2022/03/14 12:46:47;;;;;;;26.35;11.32;;;11.20;1.00;;;;;;5013105;28;20053;-93
2022/03/14 12:49:45;;;;;;;31.30;11.70;;;11.20;1.00;;;;;;4996798;28;20049;-92
2022/03/14 12:52:16;;;;;;;32.42;11.13;;;11.40;1.00;;;;;;4989925;28;20058;-91